Logo AVAMET
Benvolgut visitant, si us plau, ingressa Recuperar contrasenya

Inforatge Xeraco centre

Dades diàries. Acumulats / Últims 30 dies disponibles

Data Temperatura (°C) Humitat rel. (%) Pressió rel. (hPa) Vent (km/h) Precipitació
Mínima Mitjana Màxima Amplitud
tèrmica
Mínima Mitjana Màxima Mínima Mitjana Màxima Predom. Mitjana Ràfega
màxima
Total
(mm)
Índex-n
Mínima Mitjana Màxima Mínima Mitjana Màxima n
0 a 1
P0 max
mm 5'
Dades mensuals acumulades fins l'últim dia disponible
05/2019 11,2 15,7 23,2 19,1 17,9 23,5 31,8 20,6 27 70 95 1.003 1.015 1.026   6,3 56,3 9,0
Dades anuals acumulades fins l'últim dia disponible
2019 4,2 11,3 23,2 15,1 11,6 19,1 31,8 27,6 15 64 97 995 1.020 1.037   6,8 80,6 262,6
Últims 30 dies disponibles
26-05-2019 14,7     18,7     22,3 7,6 55 70 84 1.016 1.018 1.019 SSE 5,8 27,8 0,0
25-05-2019 16,2     18,5     23,1 6,9 48 70 90 1.016 1.018 1.019 SSO 3,7 25,9 0,6
24-05-2019 16,6     18,6     20,6 4,0 65 82 93 1.014 1.016 1.017 S 5,0 37,0 2,0
23-05-2019 16,4     21,2     27,5 11,1 44 71 88 1.014 1.017 1.019 SE 3,7 22,6 0,0
22-05-2019 15,2     19,1     24,9 9,7 61 80 90 1.017 1.019 1.020 SSE 4,6 24,1 0,0
21-05-2019 17,0     18,9     21,4 4,4 71 80 87 1.015 1.016 1.018 SSE 5,7 40,7 4,4 0,63 1,40
20-05-2019 14,6     18,9     22,4 7,8 48 62 76 1.012 1.013 1.015 SSE 8,2 33,9 0,0
19-05-2019 14,7     18,3     24,3 9,6 27 62 83 1.010 1.011 1.014 SSO 5,4 33,9 0,0
18-05-2019 15,4     17,4     19,6 4,2 43 61 80 1.009 1.010 1.012 SSE 6,1 29,6 0,0
17-05-2019 17,0     20,9     25,2 8,2 30 47 84 1.003 1.006 1.011 O 11,3 56,3 0,0
16-05-2019 17,2     19,0     22,2 5,0 69 76 82 1.006 1.012 1.016 SSE 7,5 35,4 0,0
15-05-2019 15,6     18,6     20,5 4,9 56 75 86 1.012 1.013 1.017 ESE 6,7 27,8 0,0
14-05-2019 14,8     20,0     28,3 13,5 34 64 84 1.013 1.019 1.023 SSE 6,2 31,5 0,0
13-05-2019 14,9     18,9     22,7 7,8 36 70 88 1.020 1.021 1.023 SSE 5,0 27,8 0,0
12-05-2019 16,2     19,6     23,5 7,3 56 74 90 1.020 1.024 1.026 SSE 6,1 27,8 0,0
11-05-2019 18,4     21,2     28,0 9,6 37 71 84 1.015 1.019 1.025 SE 5,9 31,5 0,0
10-05-2019 23,2     26,7     31,8 8,6 30 48 59 1.012 1.014 1.015 SO 11,5 51,9 0,0
09-05-2019 21,1     24,7     30,1 9,0 38 50 64 1.011 1.013 1.015 OSO 8,7 42,6 0,0
08-05-2019 15,5     23,1     30,1 14,6 36 60 95 1.010 1.013 1.016 OSO 9,1 48,3 0,0
07-05-2019 14,6     18,8     24,7 10,1 58 80 89 1.014 1.017 1.020 SSE 4,0 20,9 0,0
06-05-2019 12,4     15,9     20,3 7,9 72 81 90 1.018 1.019 1.021 SSE 5,2 25,9 0,0
05-05-2019 13,4     16,3     19,0 5,6 44 67 85 1.013 1.016 1.018 SE 7,2 33,9 0,0
04-05-2019 11,2     16,0     21,1 9,9 48 67 91 1.011 1.013 1.015 SSE 6,4 27,8 0,0
03-05-2019 11,9     15,0     17,9 6,0 73 81 90 1.012 1.014 1.016 SSE 6,6 37,0 0,8
02-05-2019 14,9     16,4     18,3 3,4 57 79 92 1.015 1.016 1.018 SSE 3,3 24,1 1,0
01-05-2019 14,2     16,9     20,2 6,0 64 81 91 1.014 1.016 1.018 SSE 4,9 31,5 0,2
30-04-2019 15,2     17,6     21,1 5,9 64 79 89 1.016 1.018 1.020 SSE 6,9 32,2 0,8
29-04-2019 14,5     16,5     18,9 4,4 69 81 87 1.018 1.020 1.022 SSE 7,1 38,9 0,0
28-04-2019 12,4     16,7     20,1 7,7 52 75 88 1.020 1.023 1.026 SSE 4,7 25,9 0,0
27-04-2019 12,0     17,5     22,1 10,1 42 61 83 1.024 1.026 1.028 SSE 4,9 22,6 0,0
Últims 13 mesos disponibles
04/2019 10,0 12,7 15,2 15,9 13,9 19,2 29,2 19,2 37 68 94 1.002 1.014 1.026 SSE 9,1 61,1 216,6
03/2019 8,3 10,8 15,9 15,3 12,1 19,4 28,3 20,0 30 60 90 1.012 1.024 1.031 S 5,8 64,8 35,8
02/2019 6,6 8,9 12,3 13,0 13,3 17,2 22,4 15,8 33 65 83 996 1.026 1.035 S 5,5 79,6 0,0
01/2019 4,2 8,9 14,2 12,7 11,6 16,7 20,9 16,7 40 57 84 1.003 1.020 1.032 SSO 7,4 80,6 1,2
12/2018 6,3 10,7 15,9 14,5 14,2 18,7 24,6 18,3 47 67 88 1.010 1.026 1.032 SSO 5,6 63,0 24,0
11/2018 8,3 13,1 17,2 16,0 16,3 19,1 22,4 14,1 43 68 95 1.002 1.016 1.025 SO 6,5 75,9 318,0
10/2018 9,1 16,2 21,2 19,3 15,4 22,7 29,4 20,3 42 71 90 1.001 1.015 1.026 S 6,0 61,1 153,6
09/2018 17,1 21,7 24,9 24,6 25,1 27,7 31,7 14,6 63 78 88 1.013 1.020 1.029 4,5 46,7 109,6
08/2018 22,3 24,5 27,7 27,4 26,2 30,4 35,2 12,9 53 72 86 1.013 1.017 1.021 5,5 53,7 127,8
07/2018 22,5 24,1 26,6 27,1 26,1 30,7 37,1 14,6 35 71 85 1.012 1.016 1.021 6,7 61,1 0,4
06/2018 15,9 20,3 24,8 23,6 22,7 27,2 32,4 16,5 47 66 81 1.012 1.016 1.021 6,2 51,9 20,0
05/2018 10,6 15,7 19,2 19,1 16,3 22,6 28,5 17,9 44 66 82 1.010 1.015 1.018 SSE 5,8 53,7 1,8
04/2018 10,1 13,3 16,6 16,8 15,1 20,3 29,1 19,0 40 64 87 997 1.015 1.026 SSE 7,7 72,4 9,2
Tots els anys disponibles
2018 4,6 15,8 27,7 19,0 8,4 22,6 37,1 32,5 35 67 95 994 1.017 1.036 SSE 6,5 76,0 924,6
2017 1,4 16,3 26,9 19,8 9,6 23,3 39,0 37,6 33 68 93 1.002 1.017 1.038 SE 0,0 97,0 399,0
2016 4,8 16,0 25,6 19,4 12,4 22,8 39,6 34,8 29 66 93 993 1.017 1.036 93,0 543,9
Temperatura (°C)
Humitat relativa (%)
Velocitat del vent i ràfega màxima (km/h)
Direcció del vent (°)
Pressió (hPa)
Precipitació (mm)
Nota sobre les dades: s'avisa a l'usuari de la provisionalitat i no oficialitat d'aquestes dades
Logo AVAMET blanc
Web allotjada a Sollutia
Llicència de Creative CommonsLa web d'AVAMET i els seus continguts estan subjectes a una llicència de
Reconeixement - No Comercial - Compartir igual
Properes estacions: Altea - Club Nàutic d'Altea (Soci), Ontinyent - El Pilar (Soci), Ares del Maestrat (Ajuntament Soci), Catadau - L'Altet (Inforatge)     - - - - -      Últimes estacions: Asp - Poliesportiu (Soci), Jacarilla - centro (MeteOrihuela), Elx - Maitino/Vallverda/Velarde/Matola/Ferriol (Soci TiempoElche.com), Orihuela - Playa Flamenca (MeteOrihuela), - - -